sensor_id;sensor_type;location;lat;lon;timestamp;P1;durP1;ratioP1;P2;durP2;ratioP2
51475;SDS011;37554;50.362;7.568;2023-03-30T00:00:10;1.67;;;1.55;;
51475;SDS011;37554;50.362;7.568;2023-03-30T00:02:42;2.20;;;1.97;;
51475;SDS011;37554;50.362;7.568;2023-03-30T00:05:10;1.98;;;1.60;;
51475;SDS011;37554;50.362;7.568;2023-03-30T00:07:35;2.25;;;2.00;;
51475;SDS011;37554;50.362;7.568;2023-03-30T00:10:08;2.92;;;1.77;;
51475;SDS011;37554;50.362;7.568;2023-03-30T00:12:35;3.55;;;1.95;;
51475;SDS011;37554;50.362;7.568;2023-03-30T00:15:01;2.60;;;1.85;;
51475;SDS011;37554;50.362;7.568;2023-03-30T00:17:28;2.58;;;1.73;;
51475;SDS011;37554;50.362;7.568;2023-03-30T00:19:54;2.15;;;1.88;;
51475;SDS011;37554;50.362;7.568;2023-03-30T00:22:20;2.22;;;1.92;;
51475;SDS011;37554;50.362;7.568;2023-03-30T00:24:46;3.38;;;2.05;;
51475;SDS011;37554;50.362;7.568;2023-03-30T00:27:12;3.13;;;1.90;;
51475;SDS011;37554;50.362;7.568;2023-03-30T00:29:37;2.42;;;1.73;;
51475;SDS011;37554;50.362;7.568;2023-03-30T00:32:03;3.08;;;1.63;;
51475;SDS011;37554;50.362;7.568;2023-03-30T00:34:28;1.83;;;1.70;;
51475;SDS011;37554;50.362;7.568;2023-03-30T00:36:54;4.05;;;1.65;;
51475;SDS011;37554;50.362;7.568;2023-03-30T00:39:20;4.03;;;1.85;;
51475;SDS011;37554;50.362;7.568;2023-03-30T00:41:47;2.15;;;1.80;;
51475;SDS011;37554;50.362;7.568;2023-03-30T00:47:37;2.55;;;1.75;;
51475;SDS011;37554;50.362;7.568;2023-03-30T00:50:07;2.33;;;1.77;;
51475;SDS011;37554;50.362;7.568;2023-03-30T00:52:34;2.63;;;1.75;;
51475;SDS011;37554;50.362;7.568;2023-03-30T00:55:01;2.33;;;1.63;;
51475;SDS011;37554;50.362;7.568;2023-03-30T00:57:31;2.17;;;1.63;;
51475;SDS011;37554;50.362;7.568;2023-03-30T00:59:59;1.83;;;1.63;;
51475;SDS011;37554;50.362;7.568;2023-03-30T01:02:26;2.78;;;1.80;;
51475;SDS011;37554;50.362;7.568;2023-03-30T01:04:54;2.50;;;1.80;;
51475;SDS011;37554;50.362;7.568;2023-03-30T01:07:21;2.58;;;1.70;;
51475;SDS011;37554;50.362;7.568;2023-03-30T01:09:48;2.08;;;1.88;;
51475;SDS011;37554;50.362;7.568;2023-03-30T01:12:15;2.15;;;1.92;;
51475;SDS011;37554;50.362;7.568;2023-03-30T01:14:41;2.83;;;1.58;;
51475;SDS011;37554;50.362;7.568;2023-03-30T01:17:22;2.83;;;1.67;;
51475;SDS011;37554;50.362;7.568;2023-03-30T01:26:09;2.65;;;1.90;;
51475;SDS011;37554;50.362;7.568;2023-03-30T01:34:27;1.65;;;1.38;;
51475;SDS011;37554;50.362;7.568;2023-03-30T01:40:15;2.88;;;1.60;;
51475;SDS011;37554;50.362;7.568;2023-03-30T01:43:05;2.67;;;1.92;;
51475;SDS011;37554;50.362;7.568;2023-03-30T01:46:41;2.65;;;1.50;;
51475;SDS011;37554;50.362;7.568;2023-03-30T01:48:45;2.17;;;1.33;;
51475;SDS011;37554;50.362;7.568;2023-03-30T01:51:21;2.63;;;1.52;;
51475;SDS011;37554;50.362;7.568;2023-03-30T01:54:04;2.08;;;1.35;;
51475;SDS011;37554;50.362;7.568;2023-03-30T01:56:47;2.55;;;1.40;;
51475;SDS011;37554;50.362;7.568;2023-03-30T01:59:20;1.98;;;1.30;;
51475;SDS011;37554;50.362;7.568;2023-03-30T02:01:58;5.68;;;1.85;;
51475;SDS011;37554;50.362;7.568;2023-03-30T02:04:28;4.43;;;1.67;;
51475;SDS011;37554;50.362;7.568;2023-03-30T02:07:01;2.25;;;1.58;;
51475;SDS011;37554;50.362;7.568;2023-03-30T02:09:38;2.00;;;1.42;;
51475;SDS011;37554;50.362;7.568;2023-03-30T02:12:06;3.67;;;1.40;;
51475;SDS011;37554;50.362;7.568;2023-03-30T02:14:34;3.30;;;1.30;;
51475;SDS011;37554;50.362;7.568;2023-03-30T02:17:03;2.70;;;1.23;;
51475;SDS011;37554;50.362;7.568;2023-03-30T02:22:02;2.22;;;0.98;;
51475;SDS011;37554;50.362;7.568;2023-03-30T02:24:28;3.85;;;1.40;;
51475;SDS011;37554;50.362;7.568;2023-03-30T02:26:55;2.53;;;1.13;;
51475;SDS011;37554;50.362;7.568;2023-03-30T02:29:23;2.67;;;1.15;;
51475;SDS011;37554;50.362;7.568;2023-03-30T02:31:52;4.57;;;1.50;;
51475;SDS011;37554;50.362;7.568;2023-03-30T02:39:55;3.17;;;1.55;;
51475;SDS011;37554;50.362;7.568;2023-03-30T02:42:33;3.30;;;1.42;;
51475;SDS011;37554;50.362;7.568;2023-03-30T02:45:17;4.13;;;1.40;;
51475;SDS011;37554;50.362;7.568;2023-03-30T02:47:58;2.88;;;1.40;;
51475;SDS011;37554;50.362;7.568;2023-03-30T02:50:38;4.50;;;1.42;;
51475;SDS011;37554;50.362;7.568;2023-03-30T02:53:11;3.03;;;1.10;;
51475;SDS011;37554;50.362;7.568;2023-03-30T02:56:10;3.60;;;1.25;;
51475;SDS011;37554;50.362;7.568;2023-03-30T02:58:46;3.38;;;1.65;;
51475;SDS011;37554;50.362;7.568;2023-03-30T03:01:19;5.20;;;1.45;;
51475;SDS011;37554;50.362;7.568;2023-03-30T03:03:52;2.05;;;1.20;;
51475;SDS011;37554;50.362;7.568;2023-03-30T03:06:22;2.90;;;1.42;;
51475;SDS011;37554;50.362;7.568;2023-03-30T03:08:48;6.07;;;1.45;;
51475;SDS011;37554;50.362;7.568;2023-03-30T03:11:14;6.07;;;1.35;;
51475;SDS011;37554;50.362;7.568;2023-03-30T03:13:41;1.67;;;1.20;;
51475;SDS011;37554;50.362;7.568;2023-03-30T03:16:08;4.78;;;1.75;;
51475;SDS011;37554;50.362;7.568;2023-03-30T03:18:37;7.70;;;1.52;;
51475;SDS011;37554;50.362;7.568;2023-03-30T03:21:04;4.15;;;1.52;;
51475;SDS011;37554;50.362;7.568;2023-03-30T03:23:31;4.85;;;1.45;;
51475;SDS011;37554;50.362;7.568;2023-03-30T03:25:57;4.45;;;1.45;;
51475;SDS011;37554;50.362;7.568;2023-03-30T03:28:24;5.18;;;1.35;;
51475;SDS011;37554;50.362;7.568;2023-03-30T03:30:50;3.20;;;1.20;;
51475;SDS011;37554;50.362;7.568;2023-03-30T03:33:17;1.92;;;1.05;;
51475;SDS011;37554;50.362;7.568;2023-03-30T03:35:44;2.90;;;1.20;;
51475;SDS011;37554;50.362;7.568;2023-03-30T03:38:11;3.30;;;1.40;;
51475;SDS011;37554;50.362;7.568;2023-03-30T03:40:38;5.47;;;1.50;;
51475;SDS011;37554;50.362;7.568;2023-03-30T03:43:04;3.03;;;1.40;;
51475;SDS011;37554;50.362;7.568;2023-03-30T03:45:29;5.22;;;1.75;;
51475;SDS011;37554;50.362;7.568;2023-03-30T03:47:55;4.03;;;1.20;;
51475;SDS011;37554;50.362;7.568;2023-03-30T03:50:21;3.55;;;1.55;;
51475;SDS011;37554;50.362;7.568;2023-03-30T03:52:46;2.13;;;1.20;;
51475;SDS011;37554;50.362;7.568;2023-03-30T03:55:12;2.50;;;1.25;;
51475;SDS011;37554;50.362;7.568;2023-03-30T03:57:38;3.45;;;1.13;;
51475;SDS011;37554;50.362;7.568;2023-03-30T04:00:04;3.45;;;1.40;;
51475;SDS011;37554;50.362;7.568;2023-03-30T04:02:39;1.98;;;1.20;;
51475;SDS011;37554;50.362;7.568;2023-03-30T04:05:06;3.35;;;1.63;;
51475;SDS011;37554;50.362;7.568;2023-03-30T04:07:32;2.95;;;1.40;;
51475;SDS011;37554;50.362;7.568;2023-03-30T04:09:58;3.25;;;1.27;;
51475;SDS011;37554;50.362;7.568;2023-03-30T04:12:24;3.95;;;1.20;;
51475;SDS011;37554;50.362;7.568;2023-03-30T04:14:49;2.55;;;1.13;;
51475;SDS011;37554;50.362;7.568;2023-03-30T04:17:15;3.53;;;1.40;;
51475;SDS011;37554;50.362;7.568;2023-03-30T04:19:41;3.35;;;1.40;;
51475;SDS011;37554;50.362;7.568;2023-03-30T04:22:06;1.77;;;1.05;;
51475;SDS011;37554;50.362;7.568;2023-03-30T04:24:32;3.47;;;1.50;;
51475;SDS011;37554;50.362;7.568;2023-03-30T04:27:00;4.18;;;1.30;;
51475;SDS011;37554;50.362;7.568;2023-03-30T04:29:26;2.38;;;1.40;;
51475;SDS011;37554;50.362;7.568;2023-03-30T04:31:53;2.63;;;1.23;;
51475;SDS011;37554;50.362;7.568;2023-03-30T04:34:20;3.05;;;1.40;;
51475;SDS011;37554;50.362;7.568;2023-03-30T04:36:46;3.40;;;1.20;;
51475;SDS011;37554;50.362;7.568;2023-03-30T04:39:12;5.05;;;1.42;;
51475;SDS011;37554;50.362;7.568;2023-03-30T04:41:42;1.92;;;1.30;;
51475;SDS011;37554;50.362;7.568;2023-03-30T04:44:09;1.60;;;1.25;;
51475;SDS011;37554;50.362;7.568;2023-03-30T04:46:35;2.20;;;1.25;;
51475;SDS011;37554;50.362;7.568;2023-03-30T04:49:01;2.60;;;1.20;;
51475;SDS011;37554;50.362;7.568;2023-03-30T04:51:27;2.50;;;1.02;;
51475;SDS011;37554;50.362;7.568;2023-03-30T04:53:53;3.60;;;1.50;;
51475;SDS011;37554;50.362;7.568;2023-03-30T04:56:19;4.00;;;1.38;;
51475;SDS011;37554;50.362;7.568;2023-03-30T04:58:45;3.00;;;1.60;;
51475;SDS011;37554;50.362;7.568;2023-03-30T05:01:11;3.53;;;1.23;;
51475;SDS011;37554;50.362;7.568;2023-03-30T05:03:38;3.40;;;1.38;;
51475;SDS011;37554;50.362;7.568;2023-03-30T05:06:04;3.15;;;1.60;;
51475;SDS011;37554;50.362;7.568;2023-03-30T05:08:30;3.03;;;1.25;;
51475;SDS011;37554;50.362;7.568;2023-03-30T05:10:59;2.60;;;1.30;;
51475;SDS011;37554;50.362;7.568;2023-03-30T05:13:26;4.40;;;1.58;;
51475;SDS011;37554;50.362;7.568;2023-03-30T05:15:52;3.53;;;1.67;;
51475;SDS011;37554;50.362;7.568;2023-03-30T05:18:18;4.03;;;1.90;;
51475;SDS011;37554;50.362;7.568;2023-03-30T05:20:44;3.72;;;1.30;;
51475;SDS011;37554;50.362;7.568;2023-03-30T05:23:10;2.83;;;1.40;;
51475;SDS011;37554;50.362;7.568;2023-03-30T05:25:36;2.65;;;1.50;;
51475;SDS011;37554;50.362;7.568;2023-03-30T05:28:02;2.28;;;1.20;;
51475;SDS011;37554;50.362;7.568;2023-03-30T05:30:27;3.95;;;1.55;;
51475;SDS011;37554;50.362;7.568;2023-03-30T05:32:53;3.20;;;1.40;;
51475;SDS011;37554;50.362;7.568;2023-03-30T05:35:19;2.75;;;1.40;;
51475;SDS011;37554;50.362;7.568;2023-03-30T05:37:47;3.33;;;1.33;;
51475;SDS011;37554;50.362;7.568;2023-03-30T05:40:12;3.00;;;1.35;;
51475;SDS011;37554;50.362;7.568;2023-03-30T05:42:38;5.47;;;1.98;;
51475;SDS011;37554;50.362;7.568;2023-03-30T05:45:04;5.75;;;2.13;;
51475;SDS011;37554;50.362;7.568;2023-03-30T05:47:32;8.38;;;2.22;;
51475;SDS011;37554;50.362;7.568;2023-03-30T05:49:59;6.95;;;2.33;;
51475;SDS011;37554;50.362;7.568;2023-03-30T05:52:28;4.75;;;2.08;;
51475;SDS011;37554;50.362;7.568;2023-03-30T05:54:57;6.75;;;2.42;;
51475;SDS011;37554;50.362;7.568;2023-03-30T05:57:23;4.95;;;2.10;;
51475;SDS011;37554;50.362;7.568;2023-03-30T05:59:55;7.28;;;2.38;;
51475;SDS011;37554;50.362;7.568;2023-03-30T06:02:20;4.82;;;1.85;;
51475;SDS011;37554;50.362;7.568;2023-03-30T06:04:55;4.55;;;2.03;;
51475;SDS011;37554;50.362;7.568;2023-03-30T06:07:21;5.55;;;1.75;;
51475;SDS011;37554;50.362;7.568;2023-03-30T06:09:50;5.55;;;1.95;;
51475;SDS011;37554;50.362;7.568;2023-03-30T06:12:19;5.32;;;2.38;;
51475;SDS011;37554;50.362;7.568;2023-03-30T06:14:50;6.63;;;2.08;;
51475;SDS011;37554;50.362;7.568;2023-03-30T06:17:16;3.05;;;1.40;;
51475;SDS011;37554;50.362;7.568;2023-03-30T06:20:08;5.65;;;2.10;;
51475;SDS011;37554;50.362;7.568;2023-03-30T06:22:40;5.53;;;1.90;;
51475;SDS011;37554;50.362;7.568;2023-03-30T06:25:07;3.95;;;1.55;;
51475;SDS011;37554;50.362;7.568;2023-03-30T06:27:41;5.65;;;1.55;;
51475;SDS011;37554;50.362;7.568;2023-03-30T06:30:11;2.95;;;1.42;;
51475;SDS011;37554;50.362;7.568;2023-03-30T06:32:42;3.78;;;1.77;;
51475;SDS011;37554;50.362;7.568;2023-03-30T06:35:08;6.50;;;1.92;;
51475;SDS011;37554;50.362;7.568;2023-03-30T06:37:34;5.22;;;2.13;;
51475;SDS011;37554;50.362;7.568;2023-03-30T06:40:00;6.20;;;1.80;;
51475;SDS011;37554;50.362;7.568;2023-03-30T06:42:43;3.67;;;1.80;;
51475;SDS011;37554;50.362;7.568;2023-03-30T06:45:09;2.63;;;1.45;;
51475;SDS011;37554;50.362;7.568;2023-03-30T06:47:35;5.50;;;1.75;;
51475;SDS011;37554;50.362;7.568;2023-03-30T06:50:03;3.25;;;1.75;;
51475;SDS011;37554;50.362;7.568;2023-03-30T06:52:32;5.47;;;1.52;;
51475;SDS011;37554;50.362;7.568;2023-03-30T06:55:20;6.75;;;1.52;;
51475;SDS011;37554;50.362;7.568;2023-03-30T06:57:45;3.72;;;1.50;;
51475;SDS011;37554;50.362;7.568;2023-03-30T07:00:11;3.40;;;1.70;;
51475;SDS011;37554;50.362;7.568;2023-03-30T07:02:41;2.78;;;1.20;;
51475;SDS011;37554;50.362;7.568;2023-03-30T07:05:10;3.42;;;1.55;;
51475;SDS011;37554;50.362;7.568;2023-03-30T07:07:39;5.03;;;1.45;;
51475;SDS011;37554;50.362;7.568;2023-03-30T07:10:08;3.22;;;1.40;;
51475;SDS011;37554;50.362;7.568;2023-03-30T07:12:37;4.55;;;1.58;;
51475;SDS011;37554;50.362;7.568;2023-03-30T07:15:08;3.22;;;1.52;;
51475;SDS011;37554;50.362;7.568;2023-03-30T07:17:40;7.07;;;1.65;;
51475;SDS011;37554;50.362;7.568;2023-03-30T07:20:07;4.57;;;1.50;;
51475;SDS011;37554;50.362;7.568;2023-03-30T07:22:45;3.65;;;1.40;;
51475;SDS011;37554;50.362;7.568;2023-03-30T07:25:14;4.72;;;1.60;;
51475;SDS011;37554;50.362;7.568;2023-03-30T07:27:39;2.88;;;1.60;;
51475;SDS011;37554;50.362;7.568;2023-03-30T07:30:05;3.95;;;1.58;;
51475;SDS011;37554;50.362;7.568;2023-03-30T07:32:33;3.85;;;1.35;;
51475;SDS011;37554;50.362;7.568;2023-03-30T07:34:59;4.43;;;1.20;;
51475;SDS011;37554;50.362;7.568;2023-03-30T07:37:28;3.50;;;1.60;;
51475;SDS011;37554;50.362;7.568;2023-03-30T07:39:57;4.97;;;1.58;;
51475;SDS011;37554;50.362;7.568;2023-03-30T07:42:23;3.97;;;1.40;;
51475;SDS011;37554;50.362;7.568;2023-03-30T07:44:51;4.38;;;1.52;;
51475;SDS011;37554;50.362;7.568;2023-03-30T07:47:20;3.92;;;1.40;;
51475;SDS011;37554;50.362;7.568;2023-03-30T07:49:49;3.75;;;1.48;;
51475;SDS011;37554;50.362;7.568;2023-03-30T07:55:30;4.78;;;1.45;;
51475;SDS011;37554;50.362;7.568;2023-03-30T07:57:59;5.55;;;1.38;;
51475;SDS011;37554;50.362;7.568;2023-03-30T08:00:25;2.97;;;1.38;;
51475;SDS011;37554;50.362;7.568;2023-03-30T08:02:51;3.75;;;1.45;;
51475;SDS011;37554;50.362;7.568;2023-03-30T08:05:20;4.72;;;1.40;;
51475;SDS011;37554;50.362;7.568;2023-03-30T08:07:49;7.60;;;1.38;;
51475;SDS011;37554;50.362;7.568;2023-03-30T08:10:18;3.17;;;1.55;;
51475;SDS011;37554;50.362;7.568;2023-03-30T08:12:43;3.92;;;1.20;;
51475;SDS011;37554;50.362;7.568;2023-03-30T08:15:12;4.03;;;1.70;;
51475;SDS011;37554;50.362;7.568;2023-03-30T08:17:38;4.53;;;1.50;;
51475;SDS011;37554;50.362;7.568;2023-03-30T08:20:04;3.67;;;1.25;;
51475;SDS011;37554;50.362;7.568;2023-03-30T08:22:34;3.25;;;1.63;;
51475;SDS011;37554;50.362;7.568;2023-03-30T08:25:00;5.70;;;1.73;;
51475;SDS011;37554;50.362;7.568;2023-03-30T08:27:26;2.38;;;1.52;;
51475;SDS011;37554;50.362;7.568;2023-03-30T08:29:52;3.85;;;1.33;;
51475;SDS011;37554;50.362;7.568;2023-03-30T08:32:18;3.05;;;1.40;;
51475;SDS011;37554;50.362;7.568;2023-03-30T08:34:47;3.70;;;1.55;;
51475;SDS011;37554;50.362;7.568;2023-03-30T08:37:25;5.43;;;1.38;;
51475;SDS011;37554;50.362;7.568;2023-03-30T08:39:51;3.70;;;1.42;;
51475;SDS011;37554;50.362;7.568;2023-03-30T08:45:46;2.80;;;1.50;;
51475;SDS011;37554;50.362;7.568;2023-03-30T08:48:19;3.15;;;1.30;;
51475;SDS011;37554;50.362;7.568;2023-03-30T08:50:58;2.95;;;1.70;;
51475;SDS011;37554;50.362;7.568;2023-03-30T08:53:35;2.40;;;1.40;;
51475;SDS011;37554;50.362;7.568;2023-03-30T08:56:08;3.35;;;1.17;;
51475;SDS011;37554;50.362;7.568;2023-03-30T09:02:10;3.75;;;1.40;;
51475;SDS011;37554;50.362;7.568;2023-03-30T09:05:17;3.00;;;1.00;;
51475;SDS011;37554;50.362;7.568;2023-03-30T09:10:45;4.45;;;1.33;;
51475;SDS011;37554;50.362;7.568;2023-03-30T09:13:16;2.75;;;1.65;;
51475;SDS011;37554;50.362;7.568;2023-03-30T09:15:58;6.53;;;1.40;;
51475;SDS011;37554;50.362;7.568;2023-03-30T09:18:32;4.20;;;1.63;;
51475;SDS011;37554;50.362;7.568;2023-03-30T09:21:01;3.40;;;1.35;;
51475;SDS011;37554;50.362;7.568;2023-03-30T09:23:28;4.80;;;1.23;;
51475;SDS011;37554;50.362;7.568;2023-03-30T09:29:00;3.33;;;1.27;;
51475;SDS011;37554;50.362;7.568;2023-03-30T09:31:36;1.90;;;1.25;;
51475;SDS011;37554;50.362;7.568;2023-03-30T09:39:25;2.53;;;1.00;;
51475;SDS011;37554;50.362;7.568;2023-03-30T09:45:03;3.45;;;1.27;;
51475;SDS011;37554;50.362;7.568;2023-03-30T09:47:38;3.40;;;1.20;;
51475;SDS011;37554;50.362;7.568;2023-03-30T09:50:05;5.13;;;1.33;;
51475;SDS011;37554;50.362;7.568;2023-03-30T09:52:33;2.65;;;1.50;;
51475;SDS011;37554;50.362;7.568;2023-03-30T09:57:45;3.08;;;1.23;;
51475;SDS011;37554;50.362;7.568;2023-03-30T10:02:53;4.53;;;1.30;;
51475;SDS011;37554;50.362;7.568;2023-03-30T10:05:21;3.20;;;1.33;;
51475;SDS011;37554;50.362;7.568;2023-03-30T10:07:51;2.70;;;1.40;;
51475;SDS011;37554;50.362;7.568;2023-03-30T10:12:55;3.38;;;1.23;;
51475;SDS011;37554;50.362;7.568;2023-03-30T10:15:30;4.30;;;1.30;;
51475;SDS011;37554;50.362;7.568;2023-03-30T10:17:59;3.40;;;1.60;;
51475;SDS011;37554;50.362;7.568;2023-03-30T10:21:00;4.07;;;1.40;;
51475;SDS011;37554;50.362;7.568;2023-03-30T10:23:29;4.18;;;1.58;;
51475;SDS011;37554;50.362;7.568;2023-03-30T10:26:03;4.38;;;1.50;;
51475;SDS011;37554;50.362;7.568;2023-03-30T10:28:32;4.05;;;1.20;;
51475;SDS011;37554;50.362;7.568;2023-03-30T10:31:00;5.18;;;1.70;;
51475;SDS011;37554;50.362;7.568;2023-03-30T10:33:29;3.75;;;1.48;;
51475;SDS011;37554;50.362;7.568;2023-03-30T10:35:56;3.42;;;1.30;;
51475;SDS011;37554;50.362;7.568;2023-03-30T10:38:24;4.75;;;1.63;;
51475;SDS011;37554;50.362;7.568;2023-03-30T10:40:58;3.83;;;1.70;;
51475;SDS011;37554;50.362;7.568;2023-03-30T10:43:28;3.83;;;1.95;;
51475;SDS011;37554;50.362;7.568;2023-03-30T10:45:56;3.97;;;1.63;;
51475;SDS011;37554;50.362;7.568;2023-03-30T10:51:44;6.63;;;1.50;;
51475;SDS011;37554;50.362;7.568;2023-03-30T10:59:50;2.78;;;1.25;;
51475;SDS011;37554;50.362;7.568;2023-03-30T11:10:39;1.88;;;0.90;;
51475;SDS011;37554;50.362;7.568;2023-03-30T11:13:22;3.58;;;0.88;;
51475;SDS011;37554;50.362;7.568;2023-03-30T11:18:39;2.35;;;0.80;;
51475;SDS011;37554;50.362;7.568;2023-03-30T11:23:53;1.88;;;0.70;;
51475;SDS011;37554;50.362;7.568;2023-03-30T11:29:29;0.98;;;0.50;;
51475;SDS011;37554;50.362;7.568;2023-03-30T11:32:13;2.42;;;0.63;;
51475;SDS011;37554;50.362;7.568;2023-03-30T11:39:51;3.50;;;0.50;;
51475;SDS011;37554;50.362;7.568;2023-03-30T11:42:34;1.65;;;0.55;;
51475;SDS011;37554;50.362;7.568;2023-03-30T11:50:35;0.80;;;0.40;;
51475;SDS011;37554;50.362;7.568;2023-03-30T11:53:32;1.45;;;0.52;;
51475;SDS011;37554;50.362;7.568;2023-03-30T11:56:13;1.08;;;0.40;;
51475;SDS011;37554;50.362;7.568;2023-03-30T11:59:04;1.63;;;0.70;;
51475;SDS011;37554;50.362;7.568;2023-03-30T12:04:10;0.80;;;0.40;;
51475;SDS011;37554;50.362;7.568;2023-03-30T12:06:40;0.63;;;0.40;;
51475;SDS011;37554;50.362;7.568;2023-03-30T12:11:44;1.25;;;0.40;;
51475;SDS011;37554;50.362;7.568;2023-03-30T12:16:50;1.58;;;0.52;;
51475;SDS011;37554;50.362;7.568;2023-03-30T12:19:22;1.08;;;0.47;;
51475;SDS011;37554;50.362;7.568;2023-03-30T12:22:20;1.65;;;0.50;;
51475;SDS011;37554;50.362;7.568;2023-03-30T12:24:59;1.48;;;0.50;;
51475;SDS011;37554;50.362;7.568;2023-03-30T12:27:26;2.28;;;0.63;;
51475;SDS011;37554;50.362;7.568;2023-03-30T12:29:53;1.35;;;0.47;;
51475;SDS011;37554;50.362;7.568;2023-03-30T12:34:48;1.38;;;0.55;;
51475;SDS011;37554;50.362;7.568;2023-03-30T12:37:17;1.20;;;0.77;;
51475;SDS011;37554;50.362;7.568;2023-03-30T12:39:53;4.95;;;0.70;;
51475;SDS011;37554;50.362;7.568;2023-03-30T12:42:25;2.65;;;0.73;;
51475;SDS011;37554;50.362;7.568;2023-03-30T12:52:53;3.20;;;0.55;;
51475;SDS011;37554;50.362;7.568;2023-03-30T12:56:02;2.80;;;0.60;;
51475;SDS011;37554;50.362;7.568;2023-03-30T13:04:44;1.20;;;0.30;;
51475;SDS011;37554;50.362;7.568;2023-03-30T13:07:13;1.60;;;0.50;;
51475;SDS011;37554;50.362;7.568;2023-03-30T13:09:55;1.00;;;0.32;;
51475;SDS011;37554;50.362;7.568;2023-03-30T13:12:57;1.27;;;0.40;;
51475;SDS011;37554;50.362;7.568;2023-03-30T13:17:48;1.02;;;0.38;;
51475;SDS011;37554;50.362;7.568;2023-03-30T13:25:42;3.35;;;0.57;;
51475;SDS011;37554;50.362;7.568;2023-03-30T13:31:16;1.55;;;0.52;;
51475;SDS011;37554;50.362;7.568;2023-03-30T13:36:58;2.13;;;0.60;;
51475;SDS011;37554;50.362;7.568;2023-03-30T13:39:38;1.63;;;0.40;;
51475;SDS011;37554;50.362;7.568;2023-03-30T13:42:14;2.42;;;0.60;;
51475;SDS011;37554;50.362;7.568;2023-03-30T13:48:00;1.65;;;0.40;;
51475;SDS011;37554;50.362;7.568;2023-03-30T13:50:29;1.23;;;0.47;;
51475;SDS011;37554;50.362;7.568;2023-03-30T13:52:59;2.17;;;0.75;;
51475;SDS011;37554;50.362;7.568;2023-03-30T13:55:32;1.25;;;0.50;;
51475;SDS011;37554;50.362;7.568;2023-03-30T14:01:00;2.08;;;0.57;;
51475;SDS011;37554;50.362;7.568;2023-03-30T14:03:47;1.27;;;0.50;;
51475;SDS011;37554;50.362;7.568;2023-03-30T14:06:24;1.42;;;0.45;;
51475;SDS011;37554;50.362;7.568;2023-03-30T14:11:32;1.17;;;0.40;;
51475;SDS011;37554;50.362;7.568;2023-03-30T14:14:16;3.25;;;0.70;;
51475;SDS011;37554;50.362;7.568;2023-03-30T14:17:14;1.17;;;0.50;;
51475;SDS011;37554;50.362;7.568;2023-03-30T14:22:43;2.00;;;0.70;;
51475;SDS011;37554;50.362;7.568;2023-03-30T14:25:22;3.20;;;0.68;;
51475;SDS011;37554;50.362;7.568;2023-03-30T14:27:56;2.15;;;0.80;;
51475;SDS011;37554;50.362;7.568;2023-03-30T14:30:26;2.53;;;1.00;;
51475;SDS011;37554;50.362;7.568;2023-03-30T14:33:09;2.78;;;0.90;;
51475;SDS011;37554;50.362;7.568;2023-03-30T14:35:38;3.78;;;1.15;;
51475;SDS011;37554;50.362;7.568;2023-03-30T14:38:09;2.03;;;1.23;;
51475;SDS011;37554;50.362;7.568;2023-03-30T14:40:39;3.33;;;1.58;;
51475;SDS011;37554;50.362;7.568;2023-03-30T14:43:05;2.25;;;1.17;;
51475;SDS011;37554;50.362;7.568;2023-03-30T14:45:35;3.92;;;1.58;;
51475;SDS011;37554;50.362;7.568;2023-03-30T14:48:01;2.95;;;1.50;;
51475;SDS011;37554;50.362;7.568;2023-03-30T14:50:27;2.72;;;1.45;;
51475;SDS011;37554;50.362;7.568;2023-03-30T14:52:53;3.20;;;1.40;;
51475;SDS011;37554;50.362;7.568;2023-03-30T14:55:22;2.13;;;1.00;;
51475;SDS011;37554;50.362;7.568;2023-03-30T14:57:49;2.33;;;1.00;;
51475;SDS011;37554;50.362;7.568;2023-03-30T15:00:16;3.50;;;1.05;;
51475;SDS011;37554;50.362;7.568;2023-03-30T15:02:45;2.15;;;1.08;;
51475;SDS011;37554;50.362;7.568;2023-03-30T15:05:15;2.65;;;0.85;;
51475;SDS011;37554;50.362;7.568;2023-03-30T15:07:43;3.95;;;1.27;;
51475;SDS011;37554;50.362;7.568;2023-03-30T15:12:57;2.10;;;1.40;;
51475;SDS011;37554;50.362;7.568;2023-03-30T15:15:25;3.17;;;1.50;;
51475;SDS011;37554;50.362;7.568;2023-03-30T15:17:54;3.80;;;1.30;;
51475;SDS011;37554;50.362;7.568;2023-03-30T15:20:21;2.42;;;1.13;;
51475;SDS011;37554;50.362;7.568;2023-03-30T15:39:21;3.40;;;0.90;;
51475;SDS011;37554;50.362;7.568;2023-03-30T15:41:50;2.33;;;0.90;;
51475;SDS011;37554;50.362;7.568;2023-03-30T15:44:25;6.38;;;1.00;;
51475;SDS011;37554;50.362;7.568;2023-03-30T15:46:55;2.85;;;0.77;;
51475;SDS011;37554;50.362;7.568;2023-03-30T15:49:23;5.15;;;1.17;;
51475;SDS011;37554;50.362;7.568;2023-03-30T15:51:57;5.85;;;1.33;;
51475;SDS011;37554;50.362;7.568;2023-03-30T15:54:29;2.30;;;0.85;;
51475;SDS011;37554;50.362;7.568;2023-03-30T15:57:03;4.65;;;1.02;;
51475;SDS011;37554;50.362;7.568;2023-03-30T15:59:31;2.25;;;0.80;;
51475;SDS011;37554;50.362;7.568;2023-03-30T16:02:11;3.38;;;1.17;;
51475;SDS011;37554;50.362;7.568;2023-03-30T16:04:40;4.30;;;1.00;;
51475;SDS011;37554;50.362;7.568;2023-03-30T16:07:16;2.33;;;0.88;;
51475;SDS011;37554;50.362;7.568;2023-03-30T16:09:44;3.85;;;1.30;;
51475;SDS011;37554;50.362;7.568;2023-03-30T16:12:11;3.95;;;1.40;;
51475;SDS011;37554;50.362;7.568;2023-03-30T16:14:39;5.07;;;1.65;;
51475;SDS011;37554;50.362;7.568;2023-03-30T16:17:05;7.00;;;1.63;;
51475;SDS011;37554;50.362;7.568;2023-03-30T16:19:31;6.07;;;1.58;;
51475;SDS011;37554;50.362;7.568;2023-03-30T16:21:56;3.90;;;1.50;;
51475;SDS011;37554;50.362;7.568;2023-03-30T16:24:22;3.03;;;1.35;;
51475;SDS011;37554;50.362;7.568;2023-03-30T16:26:48;5.00;;;1.92;;
51475;SDS011;37554;50.362;7.568;2023-03-30T16:29:17;5.07;;;1.60;;
51475;SDS011;37554;50.362;7.568;2023-03-30T16:31:45;6.57;;;2.13;;
51475;SDS011;37554;50.362;7.568;2023-03-30T16:34:11;5.78;;;1.80;;
51475;SDS011;37554;50.362;7.568;2023-03-30T16:36:37;3.58;;;1.50;;
51475;SDS011;37554;50.362;7.568;2023-03-30T16:39:02;2.20;;;1.20;;
51475;SDS011;37554;50.362;7.568;2023-03-30T16:41:31;4.75;;;1.38;;
51475;SDS011;37554;50.362;7.568;2023-03-30T16:43:56;4.25;;;1.60;;
51475;SDS011;37554;50.362;7.568;2023-03-30T16:46:22;4.45;;;1.55;;
51475;SDS011;37554;50.362;7.568;2023-03-30T16:48:48;4.28;;;1.40;;
51475;SDS011;37554;50.362;7.568;2023-03-30T16:51:14;4.15;;;1.50;;
51475;SDS011;37554;50.362;7.568;2023-03-30T16:53:40;4.68;;;1.40;;
51475;SDS011;37554;50.362;7.568;2023-03-30T16:56:14;2.95;;;1.10;;
51475;SDS011;37554;50.362;7.568;2023-03-30T16:58:41;5.00;;;1.30;;
51475;SDS011;37554;50.362;7.568;2023-03-30T17:01:07;2.47;;;1.30;;
51475;SDS011;37554;50.362;7.568;2023-03-30T17:03:37;2.97;;;1.33;;
51475;SDS011;37554;50.362;7.568;2023-03-30T17:06:03;4.43;;;1.52;;
51475;SDS011;37554;50.362;7.568;2023-03-30T17:08:29;3.55;;;1.48;;
51475;SDS011;37554;50.362;7.568;2023-03-30T17:10:56;3.63;;;1.70;;
51475;SDS011;37554;50.362;7.568;2023-03-30T17:13:25;2.78;;;1.25;;
51475;SDS011;37554;50.362;7.568;2023-03-30T17:15:51;13.40;;;1.30;;
51475;SDS011;37554;50.362;7.568;2023-03-30T17:18:18;3.90;;;1.65;;
51475;SDS011;37554;50.362;7.568;2023-03-30T17:20:50;4.53;;;1.67;;
51475;SDS011;37554;50.362;7.568;2023-03-30T17:23:21;2.33;;;1.25;;
51475;SDS011;37554;50.362;7.568;2023-03-30T17:25:48;2.38;;;1.40;;
51475;SDS011;37554;50.362;7.568;2023-03-30T17:28:21;6.28;;;1.52;;
51475;SDS011;37554;50.362;7.568;2023-03-30T17:30:50;3.72;;;1.42;;
51475;SDS011;37554;50.362;7.568;2023-03-30T17:33:17;4.38;;;1.48;;
51475;SDS011;37554;50.362;7.568;2023-03-30T17:35:45;4.95;;;1.45;;
51475;SDS011;37554;50.362;7.568;2023-03-30T17:38:22;3.85;;;1.83;;
51475;SDS011;37554;50.362;7.568;2023-03-30T17:40:48;3.13;;;1.40;;
51475;SDS011;37554;50.362;7.568;2023-03-30T17:43:14;9.95;;;2.05;;
51475;SDS011;37554;50.362;7.568;2023-03-30T17:45:40;3.38;;;1.42;;
51475;SDS011;37554;50.362;7.568;2023-03-30T17:48:09;4.35;;;1.77;;
51475;SDS011;37554;50.362;7.568;2023-03-30T17:50:41;3.65;;;1.60;;